Time;durP1;ratioP1;P1;durP2;ratioP2;P2;SDS_P1;SDS_P2;PMS_P1;PMS_P2;Temp;Humidity;BMP_temperature;BMP_pressure;BME280_temperature;BME280_humidity;BME280_pressure;Samples;Min_cycle;Max_cycle;Signal;HPM_P1;HPM_P2
2023/04/26 00:00:15;;;;;;;2.45;1.20;;;;;;;18.51;56.25;99407.59;5092491;28;20103;-73
2023/04/26 00:02:40;;;;;;;1.98;1.38;;;;;;;18.52;56.40;99410.16;5092259;28;20042;-74
2023/04/26 00:05:06;;;;;;;2.30;1.30;;;;;;;18.50;56.66;99401.44;5074270;28;20036;-73
2023/04/26 00:07:32;;;;;;;1.73;1.00;;;;;;;18.49;56.30;99410.28;5092279;28;20472;-73
2023/04/26 00:09:58;;;;;;;1.83;1.10;;;;;;;18.50;56.41;99409.34;5092373;28;20154;-73
2023/04/26 00:12:24;;;;;;;2.58;1.40;;;;;;;18.50;56.46;99412.00;5091983;28;20103;-74
2023/04/26 00:14:49;;;;;;;2.78;1.40;;;;;;;18.47;56.53;99404.25;5092091;28;20026;-73
2023/04/26 00:17:15;;;;;;;1.92;1.17;;;;;;;18.46;56.34;99407.78;5073992;28;20507;-73
2023/04/26 00:19:40;;;;;;;2.75;1.33;;;;;;;18.46;56.41;99410.44;5092368;28;20449;-74
2023/04/26 00:22:07;;;;;;;1.92;1.08;;;;;;;18.46;56.37;99410.44;5092151;28;20093;-73
2023/04/26 00:24:33;;;;;;;2.00;1.10;;;;;;;18.46;56.23;99410.44;5091984;28;20054;-73
2023/04/26 00:26:59;;;;;;;2.05;1.35;;;;;;;18.45;56.58;99407.91;5091693;28;20024;-74
2023/04/26 00:29:24;;;;;;;2.90;1.40;;;;;;;18.43;56.49;99415.91;5092080;28;20085;-74
2023/04/26 00:31:50;;;;;;;1.75;1.10;;;;;;;18.44;56.50;99401.75;5092204;28;20028;-73
2023/04/26 00:34:16;;;;;;;1.77;1.00;;;;;;;18.45;56.14;99405.25;5091625;28;20618;-73
2023/04/26 00:36:41;;;;;;;1.88;1.10;;;;;;;18.45;56.40;99405.25;5092120;28;20036;-73
2023/04/26 00:39:08;;;;;;;2.28;1.25;;;;;;;18.43;56.48;99405.31;5092057;28;20029;-74
2023/04/26 00:41:34;;;;;;;2.22;1.20;;;;;;;18.42;56.19;99398.34;5091659;28;20024;-73
2023/04/26 00:43:59;;;;;;;2.63;1.40;;;;;;;18.44;56.50;99407.03;5091840;28;20025;-74
2023/04/26 00:46:27;;;;;;;2.22;1.15;;;;;;;18.41;56.24;99394.00;5091750;28;20054;-73
2023/04/26 00:48:53;;;;;;;1.85;1.17;;;;;;;18.40;56.37;99392.25;5091806;28;20066;-74
2023/04/26 00:51:19;;;;;;;1.88;1.25;;;;;;;18.40;56.65;99394.06;5091871;28;20028;-73
2023/04/26 00:53:45;;;;;;;2.38;1.20;;;;;;;18.39;56.35;99398.47;5092786;28;20027;-73
2023/04/26 00:56:11;;;;;;;2.30;1.27;;;;;;;18.41;56.62;99396.63;5095574;28;20032;-73
2023/04/26 00:58:37;;;;;;;2.60;1.13;;;;;;;18.40;56.60;99389.63;5095712;28;20032;-73
2023/04/26 01:01:03;;;;;;;2.45;1.40;;;;;;;18.38;56.57;99392.38;5095782;28;20480;-74
2023/04/26 01:03:29;;;;;;;2.20;1.17;;;;;;;18.34;56.44;99390.81;5095657;28;20048;-74
2023/04/26 01:05:54;;;;;;;1.95;1.17;;;;;;;18.38;56.32;99391.50;5095561;28;20032;-73
2023/04/26 01:08:21;;;;;;;2.03;1.25;;;;;;;18.39;56.42;99387.91;5095739;28;20016;-74
2023/04/26 01:10:48;;;;;;;2.33;1.30;;;;;;;18.36;56.56;99375.72;5095307;28;20395;-74
2023/04/26 01:13:14;;;;;;;2.28;1.30;;;;;;;18.38;56.58;99384.44;5095228;28;20020;-73
2023/04/26 01:15:45;;;;;;;1.80;1.23;;;;;;;18.37;56.57;99385.34;5095721;28;20102;-73
2023/04/26 01:18:10;;;;;;;1.75;1.20;;;;;;;18.36;56.29;99382.81;5095303;28;20146;-74
2023/04/26 01:20:36;;;;;;;2.42;1.10;;;;;;;18.35;56.32;99381.09;5095363;28;20084;-75
2023/04/26 01:23:02;;;;;;;1.95;1.13;;;;;;;18.34;56.56;99374.09;5095240;28;20078;-75
2023/04/26 01:25:28;;;;;;;2.15;1.23;;;;;;;18.34;56.42;99366.16;5095379;28;20396;-73
2023/04/26 01:27:53;;;;;;;2.30;1.33;;;;;;;18.35;56.49;99378.47;5095349;28;20365;-73
2023/04/26 01:30:19;;;;;;;1.70;1.08;;;;;;;18.33;56.64;99367.09;5095096;28;20023;-72
2023/04/26 01:32:44;;;;;;;1.98;0.90;;;;;;;18.30;56.63;99372.56;5094892;28;20460;-74
2023/04/26 01:35:10;;;;;;;2.33;1.40;;;;;;;18.32;56.52;99376.81;5095198;28;20024;-73
2023/04/26 01:37:35;;;;;;;1.95;1.23;;;;;;;18.31;56.72;99379.53;5094677;28;20035;-74
2023/04/26 01:40:01;;;;;;;2.25;1.33;;;;;;;18.29;56.68;99369.03;5094766;28;20024;-73
2023/04/26 01:42:26;;;;;;;1.73;1.13;;;;;;;18.31;56.38;99363.69;5094603;28;20016;-74
2023/04/26 01:44:51;;;;;;;2.78;1.50;;;;;;;18.31;56.52;99353.97;5094715;28;20028;-74
2023/04/26 01:47:17;;;;;;;3.13;1.35;;;;;;;18.30;56.62;99349.63;5094956;28;20052;-73
2023/04/26 01:49:42;;;;;;;2.25;1.20;;;;;;;18.31;56.44;99347.84;5094988;28;20027;-74
2023/04/26 01:52:07;;;;;;;1.80;1.20;;;;;;;18.29;56.70;99352.31;5094372;28;20043;-73
2023/04/26 01:54:33;;;;;;;2.33;1.20;;;;;;;18.27;56.70;99355.06;5094772;28;20046;-73
2023/04/26 01:56:58;;;;;;;2.63;1.30;;;;;;;18.28;56.48;99347.97;5076402;28;20419;-73
2023/04/26 01:59:24;;;;;;;2.33;1.20;;;;;;;18.27;56.59;99351.56;5094639;28;20028;-74
2023/04/26 02:01:49;;;;;;;2.97;1.25;;;;;;;18.29;56.43;99349.69;5094540;28;20470;-72
2023/04/26 02:04:15;;;;;;;1.98;1.10;;;;;;;18.27;56.69;99341.00;5094334;28;20035;-73
2023/04/26 02:06:41;;;;;;;2.42;1.20;;;;;;;18.27;56.34;99335.72;5094137;28;20028;-72
2023/04/26 02:09:08;;;;;;;2.30;1.30;;;;;;;18.25;56.52;99339.28;5094380;28;20480;-73
2023/04/26 02:11:34;;;;;;;2.20;1.30;;;;;;;18.25;56.41;99341.94;5094446;28;20415;-73
2023/04/26 02:13:59;;;;;;;4.13;1.20;;;;;;;18.24;56.46;99336.72;5094161;28;20030;-73
2023/04/26 02:16:25;;;;;;;2.15;1.20;;;;;;;18.27;56.37;99348.91;5094208;28;20054;-75
2023/04/26 02:18:52;;;;;;;1.20;0.95;;;;;;;18.24;56.37;99342.88;5094005;28;20055;-73
2023/04/26 02:21:17;;;;;;;2.10;1.10;;;;;;;18.26;56.27;99340.16;5093626;28;20544;-73
2023/04/26 02:23:43;;;;;;;2.08;1.10;;;;;;;18.26;56.56;99334.88;5094212;28;20016;-72
2023/04/26 02:26:10;;;;;;;1.92;1.08;;;;;;;18.24;56.61;99337.59;5093973;28;20528;-73
2023/04/26 02:28:36;;;;;;;2.95;1.33;;;;;;;18.24;56.47;99334.94;5094136;28;20112;-73
2023/04/26 02:31:02;;;;;;;2.83;1.10;;;;;;;18.23;56.54;99338.53;5093938;28;20078;-73
2023/04/26 02:33:27;;;;;;;1.88;1.20;;;;;;;18.26;56.29;99332.25;5093756;28;20036;-73
2023/04/26 02:35:52;;;;;;;2.63;1.30;;;;;;;18.23;56.44;99330.59;5093809;28;20024;-73
2023/04/26 02:38:18;;;;;;;2.10;1.30;;;;;;;18.26;56.43;99337.53;5093848;28;20023;-73
2023/04/26 02:40:44;;;;;;;1.48;1.08;;;;;;;18.24;56.33;99337.59;5093713;28;20542;-73
2023/04/26 02:43:09;;;;;;;1.98;1.13;;;;;;;18.25;56.36;99343.72;5093502;28;20392;-73
2023/04/26 02:45:42;;;;;;;1.98;1.20;;;;;;;18.23;56.21;99335.88;5093740;28;20028;-73
2023/04/26 02:48:08;;;;;;;1.83;1.10;;;;;;;18.22;56.21;99334.16;5093805;28;20028;-72
2023/04/26 02:50:34;;;;;;;2.25;1.30;;;;;;;18.21;56.60;99335.09;5093478;28;20024;-72
2023/04/26 02:52:59;;;;;;;2.03;1.20;;;;;;;18.20;56.66;99335.16;5093479;28;20556;-73
2023/04/26 02:55:25;;;;;;;2.03;0.98;;;;;;;18.22;56.23;99328.88;5092944;28;20174;-73
2023/04/26 02:57:50;;;;;;;2.08;1.10;;;;;;;18.23;56.57;99329.75;5093451;28;20024;-73
2023/04/26 03:00:16;;;;;;;1.92;1.20;;;;;;;18.22;56.32;99322.75;5093436;28;20036;-73
2023/04/26 03:02:41;;;;;;;2.35;1.20;;;;;;;18.18;56.43;99316.78;5092979;28;20020;-74
2023/04/26 03:05:08;;;;;;;1.80;1.30;;;;;;;18.21;56.27;99316.59;5092892;28;20042;-74
2023/04/26 03:07:33;;;;;;;2.65;1.10;;;;;;;18.22;56.54;99317.47;5093319;28;20024;-73
2023/04/26 03:09:59;;;;;;;1.85;1.10;;;;;;;18.20;56.32;99312.25;5093583;28;20035;-73
2023/04/26 03:12:25;;;;;;;2.00;1.30;;;;;;;18.22;56.19;99307.75;5093004;28;20058;-73
2023/04/26 03:14:50;;;;;;;2.33;1.10;;;;;;;18.19;56.23;99312.34;5093171;28;20024;-73
2023/04/26 03:17:15;;;;;;;2.63;1.35;;;;;;;18.20;56.15;99320.19;5092640;28;20074;-73
2023/04/26 03:19:41;;;;;;;2.13;1.42;;;;;;;18.20;56.25;99316.69;5092813;28;20754;-73
2023/04/26 03:22:06;;;;;;;2.75;1.42;;;;;;;18.20;56.31;99314.91;5092941;28;20020;-75
2023/04/26 03:24:32;;;;;;;2.67;1.23;;;;;;;18.17;56.35;99315.09;5093140;28;20085;-73
2023/04/26 03:26:57;;;;;;;1.90;1.10;;;;;;;18.19;56.26;99321.13;5093016;28;20024;-73
2023/04/26 03:29:22;;;;;;;1.75;1.20;;;;;;;18.19;56.30;99318.47;5092944;28;20019;-73
2023/04/26 03:31:48;;;;;;;1.83;1.20;;;;;;;18.18;56.15;99321.19;5092647;28;20172;-72
2023/04/26 03:34:13;;;;;;;2.53;1.20;;;;;;;18.18;56.49;99306.22;5092440;28;20044;-72
2023/04/26 03:36:38;;;;;;;2.00;1.30;;;;;;;18.18;56.23;99311.50;5092823;28;20537;-72
2023/04/26 03:39:07;;;;;;;2.38;1.17;;;;;;;18.16;56.51;99302.78;5092396;28;20128;-73
2023/04/26 03:41:34;;;;;;;1.95;1.13;;;;;;;18.18;56.30;99306.22;5092686;28;20061;-73
2023/04/26 03:43:59;;;;;;;2.13;1.23;;;;;;;18.19;56.41;99301.78;5092434;28;20020;-73
2023/04/26 03:46:25;;;;;;;1.63;0.90;;;;;;;18.15;56.56;99303.72;5092854;28;20031;-74
2023/04/26 03:48:50;;;;;;;1.98;1.20;;;;;;;18.16;56.25;99313.34;5092286;28;20091;-73
2023/04/26 03:51:16;;;;;;;2.45;1.13;;;;;;;18.17;56.23;99306.28;5092344;28;20023;-73
2023/04/26 03:53:41;;;;;;;2.05;1.25;;;;;;;18.16;56.38;99312.50;5092526;28;20476;-73
2023/04/26 03:56:07;;;;;;;1.75;1.20;;;;;;;18.15;56.54;99310.81;5092560;28;20016;-73
2023/04/26 03:58:32;;;;;;;2.45;1.15;;;;;;;18.14;56.36;99309.94;5092496;28;20032;-73
2023/04/26 04:00:58;;;;;;;1.52;1.08;;;;;;;18.14;56.27;99309.94;5092348;28;20483;-73
2023/04/26 04:03:23;;;;;;;1.85;0.98;;;;;;;18.16;56.45;99308.06;5091839;28;20480;-73
2023/04/26 04:05:49;;;;;;;2.40;1.23;;;;;;;18.11;56.27;99305.66;5092352;28;20044;-73
2023/04/26 04:08:14;;;;;;;2.20;1.20;;;;;;;18.14;56.44;99309.94;5092644;28;20158;-74
2023/04/26 04:10:41;;;;;;;2.92;1.50;;;;;;;18.11;56.11;99310.09;5092425;28;20020;-74
2023/04/26 04:13:07;;;;;;;2.28;1.45;;;;;;;18.12;56.58;99311.81;5092344;28;20028;-73
2023/04/26 04:15:32;;;;;;;2.72;1.50;;;;;;;18.10;56.33;99308.38;5092466;28;20030;-73
2023/04/26 04:17:57;;;;;;;1.90;1.15;;;;;;;18.09;56.48;99306.69;5091751;28;20026;-73
2023/04/26 04:20:23;;;;;;;2.20;1.33;;;;;;;18.09;56.56;99311.97;5092315;28;20050;-73
2023/04/26 04:22:48;;;;;;;2.63;1.27;;;;;;;18.09;56.56;99306.69;5092374;28;20031;-74
2023/04/26 04:25:14;;;;;;;2.15;1.30;;;;;;;18.09;56.40;99304.91;5092013;28;20028;-73
2023/04/26 04:27:43;;;;;;;2.17;1.20;;;;;;;18.07;56.31;99303.28;5092261;28;20035;-73
2023/04/26 04:30:11;;;;;;;1.90;1.33;;;;;;;18.08;56.64;99304.97;5095558;28;20395;-73
2023/04/26 04:32:38;;;;;;;2.45;1.50;;;;;;;18.08;56.62;99299.69;5096174;28;20032;-73
2023/04/26 04:35:04;;;;;;;3.03;1.27;;;;;;;18.07;56.58;99305.91;5096028;28;20048;-73
2023/04/26 04:37:31;;;;;;;1.65;1.00;;;;;;;18.08;56.25;99304.97;5096368;28;20032;-73
2023/04/26 04:39:57;;;;;;;3.05;1.63;;;;;;;18.11;56.26;99307.44;5078240;28;20472;-73
2023/04/26 04:42:22;;;;;;;2.58;1.20;;;;;;;18.10;56.12;99306.59;5096220;28;20031;-74
2023/04/26 04:44:49;;;;;;;2.03;1.30;;;;;;;18.07;56.48;99298.00;5096179;28;20024;-73
2023/04/26 04:47:14;;;;;;;2.42;1.30;;;;;;;18.07;56.34;99303.28;5095655;28;20087;-73
2023/04/26 04:49:40;;;;;;;1.92;1.20;;;;;;;18.06;56.24;99306.84;5096355;28;20024;-73
2023/04/26 04:52:06;;;;;;;2.22;1.30;;;;;;;18.07;56.23;99303.28;5096105;28;20103;-73
2023/04/26 04:54:31;;;;;;;2.63;1.50;;;;;;;18.07;56.38;99308.56;5095937;28;20063;-73
2023/04/26 04:56:57;;;;;;;2.13;1.23;;;;;;;18.07;56.42;99311.19;5095780;28;20032;-73
2023/04/26 04:59:23;;;;;;;1.88;1.02;;;;;;;18.07;56.43;99319.13;5095703;28;20035;-73
2023/04/26 05:01:49;;;;;;;2.15;1.15;;;;;;;18.06;56.26;99325.34;5095058;28;20024;-74
2023/04/26 05:04:14;;;;;;;2.72;1.55;;;;;;;18.05;56.52;99319.16;5095750;28;20039;-73
2023/04/26 05:06:40;;;;;;;2.60;1.60;;;;;;;18.07;56.21;99324.41;5095645;28;20020;-73
2023/04/26 05:09:06;;;;;;;2.15;1.30;;;;;;;18.07;56.63;99321.75;5095918;28;20032;-74
2023/04/26 05:11:32;;;;;;;2.75;1.60;;;;;;;18.06;56.31;99325.34;5095608;28;20032;-74
2023/04/26 05:13:57;;;;;;;2.05;1.20;;;;;;;18.08;56.21;99326.09;5095583;28;20547;-73
2023/04/26 05:16:23;;;;;;;2.38;1.58;;;;;;;18.04;56.39;99329.78;5095323;28;20107;-74
2023/04/26 05:18:48;;;;;;;2.28;1.42;;;;;;;18.04;56.33;99338.56;5095488;28;20032;-74
2023/04/26 05:21:14;;;;;;;3.38;1.85;;;;;;;18.04;56.38;99335.06;5095302;28;20372;-74
2023/04/26 05:23:40;;;;;;;2.33;1.40;;;;;;;18.02;56.48;99348.34;5095488;28;20024;-74
2023/04/26 05:26:06;;;;;;;1.92;1.17;;;;;;;18.04;56.28;99340.34;5095249;28;20085;-74
2023/04/26 05:28:33;;;;;;;2.38;1.30;;;;;;;18.01;56.38;99340.53;5095281;28;20054;-74
2023/04/26 05:30:58;;;;;;;2.03;1.33;;;;;;;18.02;56.56;99347.50;5094988;28;20054;-74
2023/04/26 05:33:24;;;;;;;2.15;1.20;;;;;;;18.00;56.83;99350.22;5094536;28;20080;-73
2023/04/26 05:35:51;;;;;;;2.40;1.50;;;;;;;18.00;56.34;99349.38;5095191;28;20024;-73
2023/04/26 05:38:17;;;;;;;3.53;1.50;;;;;;;17.97;56.70;99351.22;5095145;28;20395;-74
2023/04/26 05:40:42;;;;;;;3.58;1.65;;;;;;;18.00;56.53;99346.75;5094537;28;20028;-74
2023/04/26 05:43:07;;;;;;;2.42;1.40;;;;;;;18.00;56.42;99352.03;5094918;28;20151;-74
2023/04/26 05:45:33;;;;;;;2.78;1.52;;;;;;;18.00;56.32;99352.03;5094447;28;20441;-74
2023/04/26 05:47:58;;;;;;;1.85;1.35;;;;;;;17.99;56.69;99353.78;5094780;28;20024;-73
2023/04/26 05:50:24;;;;;;;2.35;1.40;;;;;;;18.02;56.35;99358.06;5094853;28;20024;-74
2023/04/26 05:52:49;;;;;;;2.60;1.48;;;;;;;18.00;56.58;99357.31;5094783;28;21098;-74
2023/04/26 05:55:14;;;;;;;2.20;1.42;;;;;;;17.97;56.57;99356.50;5094581;28;20498;-74
2023/04/26 05:57:40;;;;;;;2.40;1.30;;;;;;;18.00;56.38;99359.94;5094710;28;20162;-74
2023/04/26 06:00:08;;;;;;;2.85;1.63;;;;;;;17.98;56.41;99363.47;5094285;28;20060;-74
2023/04/26 06:02:34;;;;;;;2.15;1.40;;;;;;;17.98;56.59;99363.47;5094511;28;20020;-73
2023/04/26 06:04:59;;;;;;;2.28;1.63;;;;;;;17.99;56.72;99369.63;5094523;28;20027;-74
2023/04/26 06:07:25;;;;;;;2.30;1.60;;;;;;;17.97;56.58;99364.41;5094540;28;20041;-74
2023/04/26 06:09:50;;;;;;;2.13;1.40;;;;;;;17.96;56.57;99368.00;5094683;28;20016;-73
2023/04/26 06:12:16;;;;;;;2.58;1.30;;;;;;;17.98;56.71;99360.84;5094288;28;20024;-74
2023/04/26 06:14:41;;;;;;;2.75;1.60;;;;;;;17.97;56.50;99372.34;5094104;28;20030;-73
2023/04/26 06:17:06;;;;;;;2.13;1.17;;;;;;;17.97;56.59;99372.34;5094280;28;20422;-74
2023/04/26 06:19:32;;;;;;;2.25;1.40;;;;;;;17.98;56.49;99368.75;5094366;28;20031;-74
2023/04/26 06:21:57;;;;;;;1.90;1.40;;;;;;;17.97;56.69;99372.34;5094392;28;20027;-73
2023/04/26 06:24:24;;;;;;;2.47;1.20;;;;;;;17.97;56.59;99388.19;5094158;28;20016;-74
2023/04/26 06:26:50;;;;;;;2.17;1.40;;;;;;;17.98;56.35;99379.31;5094208;28;20488;-74
2023/04/26 06:29:15;;;;;;;2.05;1.20;;;;;;;18.00;56.12;99386.34;5093763;28;20107;-74
2023/04/26 06:31:41;;;;;;;2.08;1.42;;;;;;;18.01;56.70;99388.03;5093873;28;20526;-73
2023/04/26 06:34:06;;;;;;;2.28;1.40;;;;;;;17.97;56.77;99382.91;5093786;28;20067;-74
2023/04/26 06:36:32;;;;;;;1.52;1.10;;;;;;;17.98;56.80;99383.78;5093934;28;20430;-74
2023/04/26 06:38:57;;;;;;;1.73;1.13;;;;;;;17.97;56.63;99382.06;5093921;28;20024;-74
2023/04/26 06:41:23;;;;;;;2.35;1.42;;;;;;;17.97;56.81;99382.06;5094086;28;20020;-73
2023/04/26 06:43:48;;;;;;;2.00;1.23;;;;;;;17.94;56.83;99388.34;5093328;28;20425;-74
2023/04/26 06:46:14;;;;;;;2.67;1.13;;;;;;;17.98;56.58;99389.88;5093769;28;20024;-73
2023/04/26 06:48:39;;;;;;;3.53;1.80;;;;;;;17.98;56.75;99389.06;5093602;28;20020;-74
2023/04/26 06:51:08;;;;;;;2.10;1.25;;;;;;;17.96;56.85;99386.47;5093166;28;20392;-73
2023/04/26 06:53:34;;;;;;;2.40;1.48;;;;;;;17.98;56.77;99379.31;5093546;28;20135;-74
2023/04/26 06:56:00;;;;;;;2.00;1.17;;;;;;;17.98;56.64;99381.97;5093444;28;20118;-75
2023/04/26 06:58:25;;;;;;;1.83;1.05;;;;;;;17.97;56.65;99382.91;5092730;28;20170;-74
2023/04/26 07:00:50;;;;;;;2.70;1.48;;;;;;;18.00;56.48;99381.06;5093602;28;20077;-74
2023/04/26 07:03:16;;;;;;;1.92;1.30;;;;;;;17.98;56.81;99374.03;5093125;28;20118;-74
2023/04/26 07:05:41;;;;;;;2.72;1.60;;;;;;;17.98;56.63;99379.31;5093279;28;20027;-74
2023/04/26 07:08:07;;;;;;;2.10;1.45;;;;;;;17.97;56.73;99374.97;5093181;28;20038;-74
2023/04/26 07:10:32;;;;;;;2.60;1.58;;;;;;;17.99;56.85;99369.63;5093397;28;20472;-74
2023/04/26 07:12:58;;;;;;;1.80;1.30;;;;;;;18.00;56.68;99370.50;5093096;28;20480;-74
2023/04/26 07:15:23;;;;;;;1.45;1.10;;;;;;;18.00;56.64;99368.69;5092943;28;20020;-73
2023/04/26 07:17:48;;;;;;;2.40;1.35;;;;;;;18.02;56.74;99373.91;5093268;28;20081;-74
2023/04/26 07:20:18;;;;;;;2.05;1.20;;;;;;;18.01;56.96;99377.47;5093127;28;20063;-73
2023/04/26 07:22:44;;;;;;;2.33;1.27;;;;;;;18.01;56.83;99377.47;5093019;28;20031;-74
2023/04/26 07:25:09;;;;;;;1.55;1.10;;;;;;;18.04;56.87;99382.59;5093047;28;20024;-74
2023/04/26 07:27:35;;;;;;;2.65;1.50;;;;;;;18.01;56.79;99374.84;5092798;28;20028;-73
2023/04/26 07:30:00;;;;;;;2.22;1.20;;;;;;;18.00;56.50;99381.06;5093081;28;20031;-73
2023/04/26 07:32:25;;;;;;;1.58;1.17;;;;;;;18.02;56.71;99373.91;5092888;28;20066;-74
2023/04/26 07:34:51;;;;;;;2.55;1.38;;;;;;;18.03;56.89;99380.88;5092649;28;20105;-74
2023/04/26 07:37:16;;;;;;;1.90;1.05;;;;;;;18.04;56.83;99375.53;5092798;28;20025;-74
2023/04/26 07:39:43;;;;;;;2.03;1.10;;;;;;;18.06;56.80;99375.50;5092428;28;20450;-74
2023/04/26 07:42:08;;;;;;;1.95;1.30;;;;;;;18.05;56.80;99384.31;5092307;28;20035;-74
2023/04/26 07:44:34;;;;;;;2.17;1.27;;;;;;;18.06;56.70;99386.06;5092622;28;20514;-74
2023/04/26 07:46:59;;;;;;;2.00;1.30;;;;;;;18.05;56.79;99373.75;5092697;28;20548;-74
2023/04/26 07:49:24;;;;;;;2.58;1.45;;;;;;;18.07;56.78;99387.78;5092625;28;20028;-74
2023/04/26 07:51:51;;;;;;;2.03;1.00;;;;;;;18.07;56.77;99390.41;5092586;28;20089;-73
2023/04/26 07:54:16;;;;;;;2.10;1.30;;;;;;;18.09;56.64;99385.91;5092676;28;20396;-73
2023/04/26 07:56:41;;;;;;;1.98;1.15;;;;;;;18.13;56.49;99381.31;5091882;28;20073;-74
2023/04/26 07:59:07;;;;;;;2.22;1.40;;;;;;;18.14;56.26;99389.16;5092557;28;20031;-74
2023/04/26 08:01:32;;;;;;;1.95;1.38;;;;;;;18.16;56.31;99382.00;5092262;28;20484;-74
2023/04/26 08:03:58;;;;;;;2.20;1.33;;;;;;;18.14;56.40;99388.28;5092275;28;20107;-73
2023/04/26 08:06:23;;;;;;;2.10;1.30;;;;;;;18.17;56.58;99389.03;5092453;28;20465;-74
2023/04/26 08:08:49;;;;;;;1.67;1.10;;;;;;;18.14;56.64;99390.94;5092405;28;20023;-74
2023/04/26 08:11:15;;;;;;;2.35;1.33;;;;;;;18.15;56.28;99396.16;5091917;28;20024;-74
2023/04/26 08:13:42;;;;;;;2.20;1.10;;;;;;;18.17;56.35;99389.03;5092352;28;20542;-74
2023/04/26 08:16:08;;;;;;;2.30;1.38;;;;;;;18.18;56.32;99382.81;5092281;28;20028;-74
2023/04/26 08:18:34;;;;;;;2.05;1.10;;;;;;;18.19;56.26;99381.88;5092059;28;20403;-74
2023/04/26 08:20:59;;;;;;;2.05;1.23;;;;;;;18.21;56.25;99384.44;5092323;28;20032;-74
2023/04/26 08:23:25;;;;;;;2.45;1.45;;;;;;;18.19;56.35;99389.78;5091972;28;20035;-74
2023/04/26 08:25:50;;;;;;;1.90;1.17;;;;;;;18.22;56.48;99386.97;5091715;28;20103;-74
2023/04/26 08:28:16;;;;;;;1.63;1.20;;;;;;;18.19;56.15;99395.06;5092231;28;20117;-74
2023/04/26 08:30:42;;;;;;;1.45;1.10;;;;;;;18.21;56.13;99389.72;5092238;28;20019;-74
2023/04/26 08:33:08;;;;;;;1.55;1.10;;;;;;;18.21;56.20;99393.19;5091738;28;20055;-74
2023/04/26 08:35:33;;;;;;;2.42;1.30;;;;;;;18.23;56.21;99388.72;5092090;28;20032;-74
2023/04/26 08:37:59;;;;;;;1.90;1.15;;;;;;;18.22;56.30;99384.34;5073774;28;20030;-74
2023/04/26 08:40:25;;;;;;;1.38;1.05;;;;;;;18.27;56.14;99388.53;5091773;28;20094;-74
2023/04/26 08:42:52;;;;;;;1.50;1.02;;;;;;;18.28;55.85;99384.97;5073660;28;20024;-74
2023/04/26 08:45:18;;;;;;;1.52;1.00;;;;;;;18.25;56.10;99385.97;5092076;28;20081;-74
2023/04/26 08:47:47;;;;;;;2.25;1.30;;;;;;;18.28;56.22;99387.59;5091944;28;20027;-74
2023/04/26 08:50:13;;;;;;;1.90;1.30;;;;;;;18.27;56.21;99385.91;5091841;28;20016;-74
2023/04/26 08:52:40;;;;;;;1.50;0.93;;;;;;;18.29;56.11;99391.94;5091617;28;20032;-74
2023/04/26 08:55:08;;;;;;;2.08;1.23;;;;;;;18.31;56.06;99390.09;5092003;28;20409;-74
2023/04/26 08:57:34;;;;;;;2.00;1.30;;;;;;;18.31;56.02;99384.81;5091788;28;20024;-74
2023/04/26 09:00:04;;;;;;;1.52;0.98;;;;;;;18.32;55.74;99391.81;5091738;28;20036;-74
2023/04/26 09:02:30;;;;;;;1.65;1.17;;;;;;;18.33;56.05;99388.22;5075136;28;20040;-73
2023/04/26 09:04:56;;;;;;;1.65;1.02;;;;;;;18.33;56.08;99388.22;5091609;28;20048;-74
2023/04/26 09:07:28;;;;;;;2.13;1.20;;;;;;;18.32;55.85;99397.09;5091445;28;20392;-74
2023/04/26 09:09:57;;;;;;;3.15;1.10;;;;;;;18.35;55.93;99392.50;5091588;28;20060;-74
2023/04/26 09:12:24;;;;;;;1.88;1.20;;;;;;;18.32;55.81;99400.59;5091806;28;20024;-74
2023/04/26 09:14:49;;;;;;;2.38;1.20;;;;;;;18.31;55.76;99396.22;5092437;28;20023;-75
2023/04/26 09:17:27;;;;;;;2.50;1.33;;;;;;;18.36;55.81;99398.66;5095537;28;20024;-74
2023/04/26 09:19:53;;;;;;;1.83;1.25;;;;;;;18.35;56.08;99403.06;5095355;28;20473;-74
2023/04/26 09:22:36;;;;;;;2.40;1.35;;;;;;;18.36;56.09;99398.66;5095047;28;20122;-74
2023/04/26 09:25:06;;;;;;;1.10;0.90;;;;;;;18.37;55.88;99397.72;5095298;28;20028;-74
2023/04/26 09:27:44;;;;;;;1.83;1.30;;;;;;;18.38;55.78;99399.41;5095361;28;20024;-74
2023/04/26 09:30:16;;;;;;;2.25;1.33;;;;;;;18.38;55.69;99408.22;5074822;28;20504;-73
2023/04/26 09:33:05;;;;;;;2.10;1.02;;;;;;;18.40;55.91;99405.47;5074900;28;20524;-75
2023/04/26 09:35:38;;;;;;;1.63;1.02;;;;;;;18.40;55.89;99405.47;5074951;28;20068;-74
2023/04/26 09:38:06;;;;;;;1.70;1.08;;;;;;;18.41;55.75;99409.84;5076916;28;20564;-73
2023/04/26 09:40:46;;;;;;;1.75;1.20;;;;;;;18.41;55.58;99406.34;5094547;28;20024;-74
2023/04/26 09:43:14;;;;;;;1.33;0.80;;;;;;;18.40;55.76;99405.47;5094848;28;20480;-74
2023/04/26 09:45:50;;;;;;;1.95;1.10;;;;;;;18.40;55.68;99410.75;5095079;28;20024;-74
2023/04/26 09:48:24;;;;;;;1.88;1.15;;;;;;;18.41;55.61;99409.84;5095041;28;20438;-74
2023/04/26 09:50:54;;;;;;;1.40;1.17;;;;;;;18.41;55.96;99411.63;5094521;28;20043;-74
2023/04/26 09:53:26;;;;;;;1.58;1.00;;;;;;;18.40;55.74;99416.03;5094772;28;20040;-74
2023/04/26 09:55:57;;;;;;;2.00;1.17;;;;;;;18.41;55.76;99423.06;5094744;28;20028;-74
2023/04/26 09:58:23;;;;;;;1.65;1.00;;;;;;;18.41;55.91;99424.81;5094688;28;20024;-73
2023/04/26 10:00:51;;;;;;;1.45;0.90;;;;;;;18.42;55.46;99414.19;5094778;28;20032;-74
2023/04/26 10:03:21;;;;;;;1.83;1.08;;;;;;;18.40;55.86;99423.97;5094654;28;20452;-74
2023/04/26 10:05:47;;;;;;;2.15;1.17;;;;;;;18.41;55.88;99423.06;5094137;28;20058;-75
2023/04/26 10:08:13;;;;;;;2.00;1.30;;;;;;;18.42;55.78;99418.59;5094519;28;20106;-74
2023/04/26 10:10:39;;;;;;;1.85;1.20;;;;;;;18.43;55.61;99417.66;5094453;28;20472;-74
2023/04/26 10:13:05;;;;;;;1.52;1.10;;;;;;;18.43;55.72;99415.91;5094340;28;20031;-74
2023/04/26 10:15:31;;;;;;;2.17;1.30;;;;;;;18.43;55.58;99405.31;5094415;28;20069;-73
2023/04/26 10:17:57;;;;;;;1.48;1.05;;;;;;;18.43;55.77;99405.31;5094084;28;20023;-74
2023/04/26 10:20:27;;;;;;;2.50;1.00;;;;;;;18.43;55.80;99407.97;5094022;28;20031;-74
2023/04/26 10:22:59;;;;;;;2.25;1.25;;;;;;;18.44;56.00;99407.03;5094374;28;20028;-74
2023/04/26 10:25:36;;;;;;;1.95;1.20;;;;;;;18.43;55.81;99400.03;5093932;28;20395;-74
2023/04/26 10:28:02;;;;;;;1.95;1.33;;;;;;;18.43;55.76;99394.75;5093091;28;20036;-75
2023/04/26 10:30:28;;;;;;;1.48;1.02;;;;;;;18.45;55.67;99386.75;5094078;28;20095;-74
2023/04/26 10:32:56;;;;;;;1.80;1.10;;;;;;;18.45;55.67;99390.25;5093974;28;20055;-74
2023/04/26 10:35:31;;;;;;;1.60;1.00;;;;;;;18.46;55.61;99393.75;5093630;28;20170;-73
2023/04/26 10:37:59;;;;;;;2.13;1.10;;;;;;;18.45;55.94;99392.88;5093899;28;20028;-73
2023/04/26 10:40:39;;;;;;;2.03;1.25;;;;;;;18.47;55.85;99383.09;5093869;28;20024;-73
2023/04/26 10:43:07;;;;;;;1.63;1.15;;;;;;;18.47;55.74;99377.81;5093912;28;20028;-72
2023/04/26 10:45:33;;;;;;;1.63;1.10;;;;;;;18.48;55.62;99376.88;5093703;28;20107;-73
2023/04/26 10:48:18;;;;;;;3.08;1.60;;;;;;;18.49;55.61;99372.44;5093662;28;20449;-73
2023/04/26 10:51:10;;;;;;;1.93;0.90;;;;;;;18.50;55.61;99377.66;5093389;28;20119;-73
2023/04/26 10:53:45;;;;;;;1.50;1.00;;;;;;;18.49;55.63;99375.94;5093935;28;20270;-74
2023/04/26 10:56:31;;;;;;;1.85;1.20;;;;;;;18.50;55.35;99372.38;5093188;28;20023;-73
2023/04/26 10:59:14;;;;;;;2.05;1.20;;;;;;;18.48;55.72;99370.72;5093222;28;20081;-73
2023/04/26 11:01:40;;;;;;;1.83;1.20;;;;;;;18.51;55.54;99373.22;5093201;28;20031;-73
2023/04/26 11:04:10;;;;;;;2.40;1.20;;;;;;;18.51;55.66;99376.72;5093165;28;20020;-73
2023/04/26 11:06:49;;;;;;;2.00;1.23;;;;;;;18.50;55.61;99375.00;5075528;28;20024;-73
2023/04/26 11:09:36;;;;;;;2.85;1.30;;;;;;;18.51;55.59;99371.41;5093223;28;20016;-74
2023/04/26 11:12:04;;;;;;;1.35;1.05;;;;;;;18.52;55.75;99373.16;5093217;28;20031;-75
2023/04/26 11:14:30;;;;;;;1.50;0.95;;;;;;;18.52;55.84;99367.88;5093249;28;20036;-73
2023/04/26 11:16:55;;;;;;;1.75;1.20;;;;;;;18.54;55.87;99374.84;5093372;28;20050;-74
2023/04/26 11:19:21;;;;;;;1.92;1.33;;;;;;;18.54;55.82;99370.41;5092557;28;20032;-73
2023/04/26 11:21:47;;;;;;;2.13;1.30;;;;;;;18.55;55.59;99366.84;5108763;28;20476;-74
2023/04/26 11:24:15;;;;;;;1.67;1.00;;;;;;;18.55;55.87;99376.56;5093085;28;20536;-74
2023/04/26 11:26:40;;;;;;;1.60;1.10;;;;;;;18.57;55.76;99372.03;5093083;28;20391;-74
2023/04/26 11:29:08;;;;;;;2.70;1.10;;;;;;;18.58;55.62;99371.09;5092944;28;20028;-74
2023/04/26 11:31:33;;;;;;;1.90;1.23;;;;;;;18.57;55.93;99369.41;5074792;28;20057;-74